Time;durP1;ratioP1;P1;durP2;ratioP2;P2;SDS_P1;SDS_P2;PMS_P1;PMS_P2;Temp;Humidity;BMP_temperature;BMP_pressure;BME280_temperature;BME280_humidity;BME280_pressure;Samples;Min_cycle;Max_cycle;Signal;HPM_P1;HPM_P2
2021/07/16 00:00:20;;;;;;;19.73;17.83;;;21.80;99.90;;;;;;4985401;28;20038;-67
2021/07/16 00:02:47;;;;;;;;;;;21.80;99.90;;;;;;4981520;28;20054;-65
2021/07/16 00:05:14;;;;;;;18.95;17.30;;;21.80;99.90;;;;;;4983407;28;19945;-67
2021/07/16 00:07:42;;;;;;;16.75;15.02;;;21.80;99.90;;;;;;4983500;28;20054;-67
2021/07/16 00:10:12;;;;;;;17.00;15.40;;;21.80;99.90;;;;;;4985567;28;20724;-65
2021/07/16 00:12:40;;;;;;;19.95;17.85;;;21.80;99.90;;;;;;4981309;28;20137;-69
2021/07/16 00:15:09;;;;;;;17.20;15.50;;;21.80;99.90;;;;;;4980194;28;20045;-71
2021/07/16 00:17:37;;;;;;;17.88;16.17;;;21.90;99.90;;;;;;4979899;28;20696;-66
2021/07/16 00:20:05;;;;;;;17.33;15.18;;;21.90;99.90;;;;;;4979787;28;20093;-73
2021/07/16 00:22:32;;;;;;;20.60;18.63;;;21.90;99.90;;;;;;4980532;28;20046;-72
2021/07/16 00:24:59;;;;;;;23.23;20.90;;;21.80;99.90;;;;;;4981579;28;20054;-65
2021/07/16 00:27:26;;;;;;;19.65;17.85;;;21.80;99.90;;;;;;4974922;28;20093;-70
2021/07/16 00:29:53;;;;;;;21.88;19.77;;;21.90;99.90;;;;;;4978028;28;20046;-69
2021/07/16 00:32:20;;;;;;;18.30;16.63;;;21.90;99.90;;;;;;4979640;28;20077;-65
2021/07/16 00:34:47;;;;;;;19.52;17.83;;;21.90;99.90;;;;;;4979640;28;20049;-65
2021/07/16 00:37:18;;;;;;;18.80;16.92;;;21.80;99.90;;;;;;4978127;28;20137;-69
2021/07/16 00:39:45;;;;;;;20.10;18.20;;;21.80;99.90;;;;;;4979772;28;20599;-69
2021/07/16 00:42:12;;;;;;;19.38;17.67;;;21.80;99.90;;;;;;4979145;28;20046;-68
2021/07/16 00:44:39;;;;;;;19.40;17.67;;;21.70;99.90;;;;;;4980840;28;20073;-69
2021/07/16 00:47:07;;;;;;;19.40;17.65;;;21.70;99.90;;;;;;4979950;28;20042;-65
2021/07/16 00:49:34;;;;;;;18.30;15.82;;;21.80;99.90;;;;;;4979906;28;20153;-73
2021/07/16 00:52:02;;;;;;;19.50;17.65;;;21.80;99.90;;;;;;4984121;28;20148;-65
2021/07/16 00:54:29;;;;;;;19.33;17.52;;;21.70;99.90;;;;;;4981394;28;20049;-69
2021/07/16 00:56:56;;;;;;;18.95;16.67;;;21.70;99.90;;;;;;4980940;28;20116;-68
2021/07/16 00:59:25;;;;;;;17.50;15.90;;;21.70;99.90;;;;;;4978223;28;20074;-65
2021/07/16 01:01:55;;;;;;;16.48;14.98;;;21.60;99.90;;;;;;4981640;28;20046;-66
2021/07/16 01:04:23;;;;;;;17.25;15.70;;;21.60;99.90;;;;;;4978135;28;20054;-69
2021/07/16 01:06:50;;;;;;;16.63;15.05;;;21.60;99.90;;;;;;4982570;28;20966;-67
2021/07/16 01:09:17;;;;;;;17.92;16.30;;;21.60;99.90;;;;;;4979265;28;20050;-68
2021/07/16 01:11:44;;;;;;;18.00;16.30;;;21.60;99.90;;;;;;4980131;28;20124;-66
2021/07/16 01:14:12;;;;;;;18.20;16.50;;;21.60;99.90;;;;;;4984228;28;20104;-67
2021/07/16 01:16:39;;;;;;;17.90;16.25;;;21.60;99.90;;;;;;4981222;28;20053;-66
2021/07/16 01:19:10;;;;;;;17.92;16.35;;;21.70;99.90;;;;;;4984418;28;20045;-67
2021/07/16 01:21:40;;;;;;;17.40;15.85;;;21.70;99.90;;;;;;4981250;28;20487;-68
2021/07/16 01:24:08;;;;;;;21.42;15.75;;;21.70;99.90;;;;;;4982448;28;20047;-67
2021/07/16 01:26:36;;;;;;;16.88;15.48;;;21.80;99.90;;;;;;4977229;28;20050;-65
2021/07/16 01:29:09;;;;;;;17.10;15.50;;;21.80;99.90;;;;;;4983183;28;20736;-65
2021/07/16 01:31:37;;;;;;;15.68;14.18;;;21.80;99.90;;;;;;4979652;28;20158;-66
2021/07/16 01:34:04;;;;;;;19.17;17.38;;;21.80;99.90;;;;;;4983467;28;20096;-71
2021/07/16 01:36:31;;;;;;;17.67;16.17;;;21.70;99.90;;;;;;4983229;28;20516;-68
2021/07/16 01:38:58;;;;;;;16.95;15.45;;;21.80;99.90;;;;;;4981193;28;20148;-68
2021/07/16 01:41:25;;;;;;;17.88;16.13;;;21.80;99.90;;;;;;4981464;28;20050;-67
2021/07/16 01:43:52;;;;;;;17.80;16.15;;;21.70;99.90;;;;;;4982728;28;20046;-70
2021/07/16 01:46:19;;;;;;;17.20;15.57;;;21.60;99.90;;;;;;4981026;28;20097;-70
2021/07/16 01:48:46;;;;;;;18.75;16.70;;;21.60;99.90;;;;;;4984124;28;20042;-66
2021/07/16 01:51:13;;;;;;;17.85;16.15;;;21.60;99.90;;;;;;4981455;28;20051;-71
2021/07/16 01:53:40;;;;;;;18.52;16.83;;;21.50;99.90;;;;;;4982512;28;20185;-65
2021/07/16 01:56:07;;;;;;;15.50;14.13;;;21.50;99.90;;;;;;4980927;28;20160;-66
2021/07/16 01:58:34;;;;;;;15.02;13.73;;;21.40;99.90;;;;;;4983899;28;20447;-71
2021/07/16 02:01:02;;;;;;;14.65;13.45;;;21.40;99.90;;;;;;4978142;28;20078;-68
2021/07/16 02:03:29;;;;;;;16.45;15.05;;;21.30;99.90;;;;;;4976063;28;20155;-67
2021/07/16 02:05:56;;;;;;;14.93;13.63;;;21.30;99.90;;;;;;4979574;28;20112;-72
2021/07/16 02:08:25;;;;;;;16.83;15.23;;;21.20;99.90;;;;;;4974494;28;20157;-66
2021/07/16 02:10:54;;;;;;;13.93;12.63;;;21.20;99.90;;;;;;4982335;28;20511;-66
2021/07/16 02:13:22;;;;;;;15.95;14.55;;;21.20;99.90;;;;;;4981216;28;20046;-68
2021/07/16 02:15:52;;;;;;;15.70;14.30;;;21.20;99.90;;;;;;4982796;28;20049;-73
2021/07/16 02:18:20;;;;;;;16.30;14.90;;;21.10;99.90;;;;;;4981516;28;20062;-67
2021/07/16 02:20:49;;;;;;;17.05;15.45;;;21.10;99.90;;;;;;4981437;28;20062;-71
2021/07/16 02:23:18;;;;;;;17.20;15.60;;;21.10;99.90;;;;;;4979649;28;20084;-68
2021/07/16 02:25:45;;;;;;;15.57;14.07;;;21.00;99.90;;;;;;4982530;28;20050;-66
2021/07/16 02:28:16;;;;;;;14.90;13.70;;;21.00;99.90;;;;;;4982703;28;20312;-65
2021/07/16 02:30:43;;;;;;;18.02;16.40;;;21.00;99.90;;;;;;4983628;28;20116;-69
2021/07/16 02:33:10;;;;;;;15.57;14.27;;;21.00;99.90;;;;;;4981325;28;20046;-66
2021/07/16 02:35:37;;;;;;;16.83;15.23;;;21.00;99.90;;;;;;4979140;28;20077;-68
2021/07/16 02:38:05;;;;;;;16.33;14.60;;;20.90;99.90;;;;;;4985978;28;20054;-70
2021/07/16 02:40:34;;;;;;;15.15;13.57;;;20.90;99.90;;;;;;4983387;28;20061;-69
2021/07/16 02:43:03;;;;;;;16.02;14.63;;;20.90;99.90;;;;;;4988106;28;20062;-65
2021/07/16 02:45:30;;;;;;;18.20;16.50;;;21.00;99.90;;;;;;4983463;28;20463;-68
2021/07/16 02:47:57;;;;;;;15.18;13.77;;;21.00;99.90;;;;;;4987504;28;20531;-67
2021/07/16 02:50:27;;;;;;;17.17;15.55;;;21.00;99.90;;;;;;4988012;28;20591;-66
2021/07/16 02:52:54;;;;;;;17.30;15.80;;;21.00;99.90;;;;;;4985782;28;20140;-66
2021/07/16 02:55:21;;;;;;;18.10;16.30;;;21.00;99.90;;;;;;4984471;28;20046;-67
2021/07/16 02:57:49;;;;;;;17.08;15.48;;;21.00;99.90;;;;;;4984270;28;20050;-65
2021/07/16 03:00:23;;;;;;;19.38;16.92;;;21.00;99.90;;;;;;4983071;28;20081;-68
2021/07/16 03:02:51;;;;;;;18.38;16.67;;;21.00;99.90;;;;;;4987621;28;20046;-66
2021/07/16 03:05:21;;;;;;;16.75;15.25;;;21.00;99.90;;;;;;4981194;28;20041;-69
2021/07/16 03:07:49;;;;;;;;;;;21.00;99.90;;;;;;4985064;28;20046;-66
2021/07/16 03:10:18;;;;;;;17.45;15.90;;;21.00;99.90;;;;;;4986324;28;19957;-68
2021/07/16 03:12:46;;;;;;;15.68;14.35;;;21.10;99.90;;;;;;4979798;28;20042;-71
2021/07/16 03:15:16;;;;;;;18.17;16.50;;;21.10;99.90;;;;;;4984881;28;20903;-67
2021/07/16 03:17:44;;;;;;;15.80;14.40;;;21.10;99.90;;;;;;4996308;28;20054;-65
2021/07/16 03:20:13;;;;;;;18.50;16.80;;;21.10;99.90;;;;;;4986724;28;20050;-66
2021/07/16 03:22:41;;;;;;;17.55;15.95;;;21.10;99.90;;;;;;4984294;28;20042;-69
2021/07/16 03:25:11;;;;;;;17.08;15.55;;;21.10;99.90;;;;;;4986611;28;20043;-67
2021/07/16 03:27:38;;;;;;;17.88;16.13;;;21.10;99.90;;;;;;4981762;28;20618;-69
2021/07/16 03:30:11;;;;;;;16.80;15.10;;;21.20;99.90;;;;;;4977991;28;20188;-66
2021/07/16 03:32:38;;;;;;;14.77;13.32;;;21.20;99.90;;;;;;4984695;28;20104;-68
2021/07/16 03:35:06;;;;;;;17.02;15.50;;;21.20;99.90;;;;;;4983723;28;20388;-65
2021/07/16 03:37:38;;;;;;;14.60;13.25;;;21.20;99.90;;;;;;4980921;28;20042;-68
2021/07/16 03:40:07;;;;;;;16.33;14.77;;;21.20;99.90;;;;;;4984788;28;20050;-68
2021/07/16 03:42:35;;;;;;;16.08;14.60;;;21.20;99.90;;;;;;4983519;28;20519;-66
2021/07/16 03:45:06;;;;;;;17.63;15.75;;;21.30;99.90;;;;;;4986796;28;20121;-66
2021/07/16 03:47:33;;;;;;;16.88;15.38;;;21.30;99.90;;;;;;4979500;28;20124;-65
2021/07/16 03:50:00;;;;;;;16.70;15.20;;;21.30;99.90;;;;;;4980237;28;20074;-67
2021/07/16 03:52:27;;;;;;;16.65;15.15;;;21.30;99.90;;;;;;4985160;28;20081;-71
2021/07/16 03:54:54;;;;;;;16.27;14.77;;;21.30;99.90;;;;;;4986624;28;20062;-73
2021/07/16 03:57:21;;;;;;;16.70;15.13;;;21.30;99.90;;;;;;4984143;28;20718;-67
2021/07/16 03:59:48;;;;;;;17.08;15.48;;;21.30;99.90;;;;;;4983528;28;20660;-66
2021/07/16 04:02:15;;;;;;;17.85;16.08;;;21.40;99.90;;;;;;4984796;28;20030;-69
2021/07/16 04:04:42;;;;;;;17.90;16.10;;;21.40;99.90;;;;;;4981737;28;20092;-71
2021/07/16 04:07:12;;;;;;;17.45;15.85;;;21.50;99.90;;;;;;4981681;28;20042;-66
2021/07/16 04:09:39;;;;;;;16.85;15.35;;;21.50;99.90;;;;;;4978748;28;20058;-67
2021/07/16 04:12:14;;;;;;;15.70;14.40;;;21.60;99.90;;;;;;4984249;28;20050;-66
2021/07/16 04:14:50;;;;;;;20.08;16.05;;;21.60;99.90;;;;;;4985929;28;20042;-67
2021/07/16 04:17:22;;;;;;;15.20;13.65;;;21.70;99.90;;;;;;4984323;28;20134;-66
2021/07/16 04:19:49;;;;;;;14.18;12.80;;;21.80;99.90;;;;;;4984595;28;20042;-65
2021/07/16 04:22:18;;;;;;;12.32;11.00;;;21.80;99.90;;;;;;4984641;28;20160;-69
2021/07/16 04:24:46;;;;;;;13.65;12.32;;;21.90;99.90;;;;;;4982358;28;20046;-66
2021/07/16 04:27:14;;;;;;;15.60;13.57;;;22.00;99.90;;;;;;4975631;28;20120;-65
2021/07/16 04:29:43;;;;;;;14.43;12.93;;;22.10;99.90;;;;;;4984842;28;20066;-69
2021/07/16 04:32:12;;;;;;;16.03;14.47;;;22.20;99.90;;;;;;4981624;28;20051;-65
2021/07/16 04:34:40;;;;;;;16.10;14.30;;;22.40;99.90;;;;;;4984138;28;20054;-71
2021/07/16 04:37:09;;;;;;;14.15;12.73;;;22.50;99.90;;;;;;4982333;28;20038;-67
2021/07/16 04:39:36;;;;;;;16.42;14.77;;;22.50;99.90;;;;;;4980980;28;20126;-72
2021/07/16 04:42:04;;;;;;;15.77;14.45;;;22.60;99.90;;;;;;4982444;28;20858;-65
2021/07/16 04:44:31;;;;;;;15.70;14.20;;;22.70;99.90;;;;;;4983321;28;20105;-69
2021/07/16 04:46:59;;;;;;;13.93;12.38;;;22.70;99.90;;;;;;4985439;28;20046;-66
2021/07/16 04:49:26;;;;;;;14.70;13.15;;;22.80;99.90;;;;;;4982869;28;20614;-70
2021/07/16 04:51:53;;;;;;;15.32;13.93;;;22.80;99.90;;;;;;4982098;28;20054;-66
2021/07/16 04:54:21;;;;;;;15.05;13.73;;;22.90;99.90;;;;;;4984490;28;20050;-66
2021/07/16 04:56:48;;;;;;;17.08;14.32;;;23.00;99.90;;;;;;4984083;28;20073;-73
2021/07/16 04:59:15;;;;;;;16.92;15.40;;;23.00;99.90;;;;;;4983911;28;20058;-66
2021/07/16 05:01:42;;;;;;;15.18;13.80;;;23.00;99.90;;;;;;4982224;28;20136;-66
2021/07/16 05:04:10;;;;;;;14.63;13.32;;;23.00;99.90;;;;;;4982093;28;20046;-69
2021/07/16 05:06:37;;;;;;;14.13;12.90;;;23.00;99.90;;;;;;4983172;28;20734;-65
2021/07/16 05:09:04;;;;;;;15.80;14.30;;;23.10;99.90;;;;;;4983745;28;20058;-68
2021/07/16 05:11:31;;;;;;;18.15;16.27;;;23.10;99.90;;;;;;4980128;28;20846;-65
2021/07/16 05:14:00;;;;;;;16.33;14.88;;;23.20;99.90;;;;;;4981082;28;20707;-65
2021/07/16 05:16:27;;;;;;;19.70;17.85;;;23.20;99.90;;;;;;4981233;28;20129;-68
2021/07/16 05:18:55;;;;;;;18.38;16.55;;;23.20;99.90;;;;;;4978478;28;20050;-69
2021/07/16 05:21:22;;;;;;;15.95;14.45;;;23.30;99.90;;;;;;4982462;28;20459;-71
2021/07/16 05:23:48;;;;;;;17.85;16.15;;;23.30;99.90;;;;;;4983226;28;20069;-69
2021/07/16 05:26:15;;;;;;;19.33;17.40;;;23.40;99.90;;;;;;4980791;28;20050;-74
2021/07/16 05:28:44;;;;;;;16.58;14.90;;;23.40;99.90;;;;;;4981584;28;20141;-65
2021/07/16 05:31:12;;;;;;;17.15;15.65;;;23.60;99.90;;;;;;4982723;28;20054;-69
2021/07/16 05:33:39;;;;;;;16.80;15.23;;;23.60;99.90;;;;;;4978785;28;20070;-67
2021/07/16 05:36:06;;;;;;;16.27;14.77;;;23.60;99.90;;;;;;4984715;28;20093;-67
2021/07/16 05:38:34;;;;;;;15.88;14.35;;;23.70;99.90;;;;;;4981173;28;20125;-66
2021/07/16 05:41:01;;;;;;;20.55;16.60;;;23.70;99.90;;;;;;4975464;28;20101;-73
2021/07/16 05:43:28;;;;;;;17.70;16.02;;;23.70;99.90;;;;;;4982802;28;20046;-67
2021/07/16 05:45:55;;;;;;;15.57;13.98;;;23.70;99.90;;;;;;4984981;28;20038;-66
2021/07/16 05:48:23;;;;;;;14.50;13.15;;;23.70;99.90;;;;;;4982753;28;20056;-69
2021/07/16 05:50:49;;;;;;;15.57;14.18;;;23.80;99.90;;;;;;4983574;28;20646;-65
2021/07/16 05:53:17;;;;;;;16.35;14.75;;;23.80;99.90;;;;;;4982265;28;20118;-68
2021/07/16 05:55:44;;;;;;;16.55;14.82;;;23.90;99.90;;;;;;4982725;28;20105;-69
2021/07/16 05:58:11;;;;;;;14.43;13.15;;;24.00;99.90;;;;;;4983810;28;20050;-70
2021/07/16 06:00:39;;;;;;;15.27;13.77;;;24.00;99.90;;;;;;4980574;28;20081;-67
2021/07/16 06:03:06;;;;;;;17.95;14.18;;;24.00;99.90;;;;;;4984523;28;20864;-67
2021/07/16 06:05:33;;;;;;;15.05;13.52;;;24.00;99.90;;;;;;4981150;28;20758;-66
2021/07/16 06:08:01;;;;;;;14.55;13.15;;;24.00;99.90;;;;;;4983620;28;20046;-69
2021/07/16 06:10:29;;;;;;;14.85;13.13;;;24.10;99.90;;;;;;4979467;28;20381;-74
2021/07/16 06:12:57;;;;;;;14.70;13.27;;;24.00;99.90;;;;;;4979945;28;20070;-69
2021/07/16 06:15:25;;;;;;;17.42;15.73;;;24.00;99.90;;;;;;4981249;28;20105;-68
2021/07/16 06:17:52;;;;;;;15.63;14.07;;;24.00;99.90;;;;;;4979683;28;20042;-69
2021/07/16 06:20:20;;;;;;;15.52;14.10;;;23.80;99.90;;;;;;4980637;28;20042;-68
2021/07/16 06:22:47;;;;;;;17.25;15.45;;;23.80;99.90;;;;;;4981401;28;20073;-66
2021/07/16 06:25:17;;;;;;;16.10;14.60;;;23.90;99.90;;;;;;4979696;28;20111;-66
2021/07/16 06:27:45;;;;;;;17.38;15.65;;;23.90;99.90;;;;;;4983515;28;20042;-67
2021/07/16 06:30:14;;;;;;;16.08;14.60;;;23.80;99.90;;;;;;4981785;28;20038;-68
2021/07/16 06:32:41;;;;;;;15.18;13.73;;;23.80;99.90;;;;;;4974781;28;20058;-67
2021/07/16 06:35:09;;;;;;;16.92;15.15;;;23.90;99.90;;;;;;4981259;28;21445;-67
2021/07/16 06:37:36;;;;;;;15.45;13.93;;;23.90;99.90;;;;;;4977423;28;20038;-69
2021/07/16 06:40:05;;;;;;;15.95;13.80;;;24.00;99.90;;;;;;4983022;28;20046;-67
2021/07/16 06:42:32;;;;;;;16.95;15.45;;;23.90;99.90;;;;;;4982584;28;20487;-67
2021/07/16 06:44:59;;;;;;;18.23;16.38;;;23.90;99.90;;;;;;4976854;28;20062;-72
2021/07/16 06:47:26;;;;;;;15.05;13.32;;;24.00;99.90;;;;;;4981092;28;20059;-68
2021/07/16 06:49:53;;;;;;;17.10;15.63;;;24.00;99.90;;;;;;4978828;28;20066;-68
2021/07/16 06:52:20;;;;;;;14.70;13.23;;;24.00;99.90;;;;;;4979837;28;20182;-70
2021/07/16 06:54:47;;;;;;;17.75;13.65;;;24.10;99.90;;;;;;4982004;28;20050;-68
2021/07/16 06:57:14;;;;;;;15.80;14.18;;;24.10;99.90;;;;;;4981211;28;20078;-67
2021/07/16 06:59:41;;;;;;;15.55;14.02;;;24.20;99.90;;;;;;4980244;28;20543;-75
2021/07/16 07:02:08;;;;;;;16.85;15.27;;;24.20;99.90;;;;;;4979822;28;20042;-68
2021/07/16 07:04:36;;;;;;;15.85;14.40;;;24.20;99.90;;;;;;4983037;28;20046;-68
2021/07/16 07:07:04;;;;;;;15.02;13.52;;;24.20;99.90;;;;;;4982081;28;20093;-65
2021/07/16 07:09:31;;;;;;;14.05;12.77;;;24.20;99.90;;;;;;4980694;28;20463;-71
2021/07/16 07:12:02;;;;;;;12.48;11.43;;;24.30;99.90;;;;;;4982079;28;20047;-68
2021/07/16 07:14:29;;;;;;;13.30;11.00;;;24.30;99.90;;;;;;4981694;28;20166;-73
2021/07/16 07:16:56;;;;;;;12.70;11.60;;;24.40;99.90;;;;;;4981318;28;20046;-67
2021/07/16 07:19:24;;;;;;;12.27;11.02;;;24.40;99.90;;;;;;4981939;28;20051;-67
2021/07/16 07:21:50;;;;;;;13.73;11.18;;;24.50;99.90;;;;;;4984663;28;20104;-69
2021/07/16 07:24:17;;;;;;;9.65;8.70;;;24.60;99.90;;;;;;4984713;28;20046;-71
2021/07/16 07:26:44;;;;;;;6.82;5.68;;;24.50;99.90;;;;;;4986462;28;20054;-65
2021/07/16 07:29:11;;;;;;;8.55;5.88;;;24.40;99.90;;;;;;4983102;28;20176;-73
2021/07/16 07:31:38;;;;;;;9.68;7.75;;;24.40;99.90;;;;;;4982464;28;20054;-71
2021/07/16 07:34:05;;;;;;;6.55;5.95;;;24.40;99.90;;;;;;4984885;28;20121;-70
2021/07/16 07:36:32;;;;;;;9.40;5.88;;;24.40;99.90;;;;;;4984634;28;20073;-69
2021/07/16 07:38:59;;;;;;;9.10;6.05;;;24.30;99.90;;;;;;4985150;28;20544;-66
2021/07/16 07:41:27;;;;;;;9.07;7.03;;;24.30;99.90;;;;;;4983640;28;20074;-71
2021/07/16 07:43:56;;;;;;;9.30;5.78;;;24.40;99.90;;;;;;4983597;28;20078;-66
2021/07/16 07:46:26;;;;;;;6.28;5.13;;;24.40;99.90;;;;;;4984738;28;20607;-68
2021/07/16 07:48:53;;;;;;;9.15;5.30;;;24.30;99.90;;;;;;4982738;28;20062;-67
2021/07/16 07:51:20;;;;;;;9.50;5.90;;;24.30;99.90;;;;;;4979957;28;20084;-70
2021/07/16 07:53:47;;;;;;;8.95;5.75;;;24.30;99.90;;;;;;4986630;28;20104;-67
2021/07/16 07:56:29;;;;;;;5.78;5.15;;;24.30;99.90;;;;;;4986007;28;20125;-67
2021/07/16 07:58:56;;;;;;;10.63;6.63;;;24.20;99.90;;;;;;4983758;28;20066;-67
2021/07/16 08:01:24;;;;;;;9.30;4.93;;;24.20;99.90;;;;;;4983534;28;20062;-66
2021/07/16 08:03:51;;;;;;;8.73;5.85;;;24.20;99.90;;;;;;4981327;28;20050;-68
2021/07/16 08:06:18;;;;;;;7.57;5.07;;;24.10;99.90;;;;;;4984787;28;20050;-69
2021/07/16 08:08:45;;;;;;;6.55;5.95;;;24.10;99.90;;;;;;4983297;28;20360;-69
2021/07/16 08:11:12;;;;;;;6.57;3.85;;;24.20;99.90;;;;;;4985106;28;20078;-67
2021/07/16 08:13:39;;;;;;;6.68;4.35;;;24.20;99.90;;;;;;4996616;28;20061;-68
2021/07/16 08:16:06;;;;;;;8.60;4.35;;;24.20;99.90;;;;;;4982632;28;20050;-71
2021/07/16 08:18:33;;;;;;;9.77;4.13;;;24.20;99.90;;;;;;4979211;28;20507;-69
2021/07/16 08:21:01;;;;;;;11.98;5.82;;;24.20;99.90;;;;;;4984124;28;20078;-69
2021/07/16 08:23:28;;;;;;;9.75;3.08;;;24.20;99.90;;;;;;4981114;28;20604;-71
2021/07/16 08:25:54;;;;;;;5.07;3.83;;;24.20;99.90;;;;;;4984034;28;20558;-68
2021/07/16 08:28:22;;;;;;;7.88;4.47;;;24.20;99.90;;;;;;4982161;28;20112;-71
2021/07/16 08:30:48;;;;;;;10.88;6.03;;;24.20;99.90;;;;;;4981442;28;20050;-67
2021/07/16 08:33:15;;;;;;;7.90;5.10;;;24.40;99.90;;;;;;4977767;28;20060;-68
2021/07/16 08:35:43;;;;;;;5.22;4.30;;;24.40;99.90;;;;;;4980581;28;20152;-68
2021/07/16 08:38:10;;;;;;;7.18;4.05;;;24.50;99.90;;;;;;4979253;28;20054;-69
2021/07/16 08:40:37;;;;;;;4.93;3.75;;;24.60;99.90;;;;;;4980612;28;20086;-68
2021/07/16 08:43:05;;;;;;;9.02;4.45;;;24.60;99.90;;;;;;4979831;28;20113;-68
2021/07/16 08:45:32;;;;;;;5.90;3.25;;;24.60;99.90;;;;;;4979415;28;20053;-69
2021/07/16 08:48:01;;;;;;;4.55;3.58;;;24.50;99.90;;;;;;4981087;28;20405;-75
2021/07/16 08:50:29;;;;;;;7.63;3.58;;;24.60;99.90;;;;;;4979619;28;20050;-69
2021/07/16 08:53:01;;;;;;;5.72;4.32;;;24.60;99.90;;;;;;4984314;28;20070;-69
2021/07/16 08:55:36;;;;;;;5.32;3.35;;;24.70;99.90;;;;;;4978631;28;20108;-71
2021/07/16 08:58:04;;;;;;;5.28;3.42;;;24.60;99.90;;;;;;4986918;28;20100;-65
2021/07/16 09:00:32;;;;;;;5.28;3.33;;;24.70;99.90;;;;;;4983912;28;20168;-65
2021/07/16 09:03:00;;;;;;;9.07;4.28;;;24.70;99.90;;;;;;4983686;28;20046;-65
2021/07/16 09:05:45;;;;;;;7.95;4.55;;;24.80;99.90;;;;;;4984467;28;20141;-67
2021/07/16 09:08:21;;;;;;;7.55;4.50;;;24.80;99.90;;;;;;4983936;28;20480;-66
2021/07/16 09:10:53;;;;;;;9.25;3.80;;;24.80;99.90;;;;;;4979646;28;20042;-67
2021/07/16 09:13:22;;;;;;;10.48;4.95;;;24.80;99.90;;;;;;4982365;28;20046;-70
2021/07/16 09:15:51;;;;;;;15.20;4.82;;;24.90;99.90;;;;;;4977923;28;20046;-65
2021/07/16 09:18:24;;;;;;;6.78;3.60;;;24.90;99.90;;;;;;4984730;28;20397;-65
2021/07/16 09:21:05;;;;;;;6.22;3.40;;;24.80;99.90;;;;;;4979464;28;20046;-70
2021/07/16 09:23:34;;;;;;;9.73;4.05;;;24.80;99.90;;;;;;4980103;28;22759;-69
2021/07/16 09:26:12;;;;;;;11.82;5.28;;;24.80;99.90;;;;;;4980910;28;20054;-69
2021/07/16 09:28:44;;;;;;;7.70;4.30;;;24.80;99.90;;;;;;4985079;28;20051;-65
2021/07/16 09:31:16;;;;;;;6.45;3.72;;;24.80;99.90;;;;;;4981176;28;20046;-70
2021/07/16 09:33:48;;;;;;;8.68;4.28;;;24.80;99.90;;;;;;4982187;28;20065;-66
2021/07/16 09:36:30;;;;;;;11.95;5.32;;;24.80;99.90;;;;;;4982439;28;21818;-68
2021/07/16 09:39:04;;;;;;;8.35;5.10;;;24.80;99.90;;;;;;4981961;28;20050;-66
2021/07/16 09:41:31;;;;;;;9.68;4.80;;;24.70;99.90;;;;;;4978885;28;20046;-67
2021/07/16 09:44:03;;;;;;;6.30;4.00;;;24.70;99.90;;;;;;4984334;28;20145;-64
2021/07/16 09:46:30;;;;;;;4.40;3.38;;;24.60;99.90;;;;;;4981722;28;20050;-72
2021/07/16 09:49:17;;;;;;;9.60;3.55;;;24.50;99.90;;;;;;4983658;28;20168;-64
2021/07/16 09:51:44;;;;;;;9.15;4.20;;;24.30;99.90;;;;;;4980342;28;20116;-68
2021/07/16 09:54:13;;;;;;;4.70;3.22;;;24.40;99.90;;;;;;4984848;28;20043;-68
2021/07/16 09:56:40;;;;;;;10.65;3.88;;;24.40;99.90;;;;;;4981591;28;20038;-65
2021/07/16 09:59:13;;;;;;;5.00;2.65;;;24.30;99.90;;;;;;4982393;28;20066;-68
2021/07/16 10:01:42;;;;;;;5.95;2.90;;;24.30;99.90;;;;;;4982097;28;20089;-66
2021/07/16 10:04:18;;;;;;;12.63;3.40;;;24.30;99.90;;;;;;4981978;28;20476;-64
2021/07/16 10:06:47;;;;;;;11.15;4.13;;;24.20;99.90;;;;;;4979289;28;20125;-64
2021/07/16 10:09:20;;;;;;;7.05;3.38;;;24.30;99.90;;;;;;4982865;28;20074;-65
2021/07/16 10:11:54;;;;;;;7.38;3.20;;;24.30;99.90;;;;;;4982350;28;20046;-65
2021/07/16 10:14:22;;;;;;;6.10;3.33;;;24.40;99.90;;;;;;4981918;28;20476;-67
2021/07/16 10:16:52;;;;;;;4.95;3.28;;;24.30;99.90;;;;;;4981100;28;20404;-67
2021/07/16 10:19:21;;;;;;;5.13;3.10;;;24.40;99.90;;;;;;4978074;28;20046;-65
2021/07/16 10:21:49;;;;;;;8.10;3.50;;;24.50;99.90;;;;;;4977924;28;20070;-66
2021/07/16 10:24:26;;;;;;;6.00;4.70;;;24.60;99.90;;;;;;4982918;28;20137;-68
2021/07/16 10:27:09;;;;;;;5.97;3.20;;;24.50;99.90;;;;;;4996371;28;20137;-66
2021/07/16 10:29:39;;;;;;;6.90;3.25;;;24.60;99.90;;;;;;4977915;28;20046;-66
2021/07/16 10:32:08;;;;;;;10.40;3.58;;;24.70;99.90;;;;;;4983130;28;20046;-68
2021/07/16 10:34:39;;;;;;;9.95;3.92;;;24.70;99.90;;;;;;4981337;28;20499;-66
2021/07/16 10:37:13;;;;;;;5.47;2.85;;;24.80;99.90;;;;;;4982039;28;20066;-65
2021/07/16 10:39:52;;;;;;;10.27;2.70;;;24.70;99.90;;;;;;4981617;28;20116;-67
2021/07/16 10:42:25;;;;;;;4.93;2.50;;;24.70;99.90;;;;;;4984511;28;20050;-65
2021/07/16 10:44:54;;;;;;;8.57;3.45;;;24.80;99.90;;;;;;4981497;28;20085;-65
2021/07/16 10:47:40;;;;;;;7.15;4.68;;;24.80;99.90;;;;;;4980926;28;20463;-66
2021/07/16 10:50:13;;;;;;;3.95;3.35;;;24.80;99.90;;;;;;4981109;28;20038;-71
2021/07/16 10:52:48;;;;;;;7.43;3.63;;;24.90;99.90;;;;;;4983808;28;20054;-66
2021/07/16 10:55:18;;;;;;;5.30;3.08;;;24.90;99.90;;;;;;4982139;28;20050;-67
2021/07/16 10:57:50;;;;;;;13.98;3.88;;;24.80;99.90;;;;;;4982639;28;20503;-65
2021/07/16 11:00:36;;;;;;;8.82;3.08;;;24.60;99.90;;;;;;4985937;28;20443;-68
2021/07/16 11:03:08;;;;;;;4.07;2.55;;;24.60;99.90;;;;;;4986810;28;20072;-65
2021/07/16 11:05:45;;;;;;;8.02;3.13;;;24.40;99.90;;;;;;4983551;28;20125;-66
2021/07/16 11:08:47;;;;;;;6.85;3.10;;;24.30;99.90;;;;;;4986992;28;20047;-67
2021/07/16 11:11:16;;;;;;;5.07;3.25;;;24.10;99.90;;;;;;4964781;28;20410;-65
2021/07/16 11:13:54;;;;;;;8.52;3.65;;;24.00;99.90;;;;;;4975548;28;20050;-65
2021/07/16 11:16:25;;;;;;;7.15;3.97;;;24.10;99.90;;;;;;4988067;28;20130;-68
2021/07/16 11:19:12;;;;;;;5.60;3.17;;;24.20;99.90;;;;;;4986783;28;20215;-69
2021/07/16 11:21:42;;;;;;;6.80;2.80;;;24.20;99.90;;;;;;4986109;28;20045;-68
2021/07/16 11:24:15;;;;;;;8.05;3.78;;;24.10;99.90;;;;;;4982940;28;20113;-68
2021/07/16 11:26:55;;;;;;;9.98;3.08;;;24.00;99.90;;;;;;4987478;28;20046;-72
2021/07/16 11:29:31;;;;;;;4.18;2.95;;;24.00;99.90;;;;;;4984670;28;20097;-65
2021/07/16 11:32:07;;;;;;;6.78;3.25;;;24.10;99.90;;;;;;4986234;28;20721;-66
2021/07/16 11:34:35;;;;;;;4.65;3.08;;;24.00;99.90;;;;;;4987463;28;20046;-67
2021/07/16 11:37:04;;;;;;;10.15;2.88;;;24.10;99.90;;;;;;4987254;28;20050;-65
2021/07/16 11:39:40;;;;;;;7.72;2.85;;;24.30;99.90;;;;;;4984142;28;20049;-74
2021/07/16 11:42:08;;;;;;;4.93;2.40;;;24.40;99.90;;;;;;4987452;28;20436;-65
2021/07/16 11:44:41;;;;;;;7.07;2.33;;;24.40;99.90;;;;;;4987074;28;20503;-67
2021/07/16 11:47:17;;;;;;;8.18;3.03;;;24.50;99.90;;;;;;4987704;28;20050;-67
2021/07/16 11:49:48;;;;;;;5.95;2.72;;;24.60;99.90;;;;;;4982482;28;20038;-67
2021/07/16 11:52:26;;;;;;;6.88;1.95;;;24.70;99.90;;;;;;4987606;28;20405;-66
2021/07/16 11:55:06;;;;;;;8.18;2.78;;;24.80;99.90;;;;;;4984613;28;20039;-70
2021/07/16 11:58:00;;;;;;;4.78;2.08;;;24.70;99.90;;;;;;4985206;28;20112;-67
2021/07/16 12:00:28;;;;;;;4.82;2.58;;;24.70;99.90;;;;;;4986551;28;20046;-67
2021/07/16 12:03:17;;;;;;;6.70;2.80;;;24.80;99.90;;;;;;4979383;28;20039;-65
2021/07/16 12:05:50;;;;;;;11.57;4.15;;;24.80;99.90;;;;;;4983836;28;20057;-69
2021/07/16 12:08:22;;;;;;;8.07;3.72;;;24.80;99.90;;;;;;4984244;28;20054;-67
2021/07/16 12:10:51;;;;;;;5.43;1.92;;;24.70;99.90;;;;;;4985729;28;20050;-65
2021/07/16 12:13:18;;;;;;;5.38;2.45;;;24.80;99.90;;;;;;4985629;28;21550;-66
2021/07/16 12:15:58;;;;;;;7.85;1.67;;;24.80;99.90;;;;;;4985651;28;20808;-64
2021/07/16 12:18:26;;;;;;;;;;;24.60;99.90;;;;;;4984495;28;20065;-66
2021/07/16 12:20:54;;;;;;;5.28;1.83;;;24.70;99.90;;;;;;4986593;28;19961;-65
2021/07/16 12:23:22;;;;;;;10.07;2.80;;;24.60;99.90;;;;;;4984546;28;20084;-65
2021/07/16 12:26:13;;;;;;;6.43;1.88;;;24.50;99.90;;;;;;4986182;28;20128;-64
2021/07/16 12:28:40;;;;;;;5.18;2.45;;;24.30;99.90;;;;;;4983450;28;20776;-68
2021/07/16 12:31:07;;;;;;;11.77;2.50;;;24.10;99.90;;;;;;4986725;28;20070;-65
2021/07/16 12:33:35;;;;;;;4.25;2.08;;;24.10;99.90;;;;;;4984772;28;20472;-64
2021/07/16 12:36:04;;;;;;;8.35;2.38;;;24.10;99.90;;;;;;4981276;28;20050;-67
2021/07/16 12:38:35;;;;;;;5.35;1.95;;;24.10;99.90;;;;;;4984416;28;20042;-69
2021/07/16 12:41:08;;;;;;;7.60;2.78;;;24.00;99.90;;;;;;4986449;28;20105;-66
2021/07/16 12:43:42;;;;;;;4.45;1.98;;;24.00;99.90;;;;;;4983338;28;20405;-71
2021/07/16 12:46:10;;;;;;;5.43;1.67;;;24.10;99.90;;;;;;4986231;28;20042;-65